Time;durP1;ratioP1;P1;durP2;ratioP2;P2;SDS_P1;SDS_P2;PMS_P1;PMS_P2;Temp;Humidity;BMP_temperature;BMP_pressure;BME280_temperature;BME280_humidity;BME280_pressure;Samples;Min_cycle;Max_cycle;Signal;HPM_P1;HPM_P2
2023/09/17 00:00:29;;;;;;;1.75;1.65;;;21.50;99.90;;;;;;5023999;28;20215;-65
2023/09/17 00:02:58;;;;;;;1.70;1.60;;;21.50;99.90;;;;;;5025498;28;20204;-65
2023/09/17 00:05:26;;;;;;;2.33;2.13;;;21.50;99.90;;;;;;5030762;28;20633;-65
2023/09/17 00:07:54;;;;;;;1.95;1.83;;;21.50;99.90;;;;;;5028342;28;20247;-66
2023/09/17 00:10:24;;;;;;;1.52;1.40;;;21.40;99.90;;;;;;5025579;28;20291;-65
2023/09/17 00:12:53;;;;;;;1.80;1.70;;;21.50;99.90;;;;;;5030950;28;20208;-65
2023/09/17 00:15:21;;;;;;;2.00;1.80;;;21.40;99.90;;;;;;5029303;28;20834;-64
2023/09/17 00:17:49;;;;;;;2.00;1.80;;;21.40;99.90;;;;;;5031857;28;20675;-65
2023/09/17 00:20:18;;;;;;;1.73;1.63;;;21.40;99.90;;;;;;5020574;28;20313;-64
2023/09/17 00:22:45;;;;;;;1.75;1.65;;;21.40;99.90;;;;;;5024167;28;20192;-67
2023/09/17 00:25:13;;;;;;;2.63;2.00;;;21.40;99.90;;;;;;5027423;28;20251;-65
2023/09/17 00:27:43;;;;;;;2.13;1.92;;;21.40;99.90;;;;;;5027159;28;20229;-67
2023/09/17 00:30:12;;;;;;;2.00;1.67;;;21.40;99.90;;;;;;5028729;28;20204;-65
2023/09/17 00:32:40;;;;;;;2.40;1.70;;;21.40;99.90;;;;;;5025569;28;20271;-65
2023/09/17 00:35:11;;;;;;;2.60;2.35;;;21.40;99.90;;;;;;5027158;28;20228;-65
2023/09/17 00:37:40;;;;;;;2.03;1.92;;;21.50;99.90;;;;;;5030131;28;20311;-65
2023/09/17 00:40:11;;;;;;;2.10;1.80;;;21.40;99.90;;;;;;5028564;28;20207;-65
2023/09/17 00:42:40;;;;;;;2.88;2.55;;;21.40;99.90;;;;;;5023823;28;20730;-68
2023/09/17 00:45:11;;;;;;;2.17;1.98;;;21.20;99.90;;;;;;5028290;28;20209;-68
2023/09/17 00:47:39;;;;;;;1.70;1.60;;;21.10;99.90;;;;;;5022619;28;20252;-66
2023/09/17 00:50:10;;;;;;;2.45;1.52;;;21.00;99.90;;;;;;5028580;28;20229;-66
2023/09/17 00:52:39;;;;;;;2.00;1.80;;;21.10;99.90;;;;;;5027558;28;20213;-66
2023/09/17 00:55:09;;;;;;;3.03;2.58;;;21.00;99.90;;;;;;5029355;28;20264;-66
2023/09/17 00:57:38;;;;;;;2.20;2.00;;;20.90;99.90;;;;;;5030704;28;20291;-66
2023/09/17 01:00:09;;;;;;;2.22;2.00;;;20.60;99.90;;;;;;5025381;28;20208;-67
2023/09/17 01:02:40;;;;;;;2.30;2.10;;;20.40;99.90;;;;;;5027214;28;20209;-66
2023/09/17 01:05:09;;;;;;;2.25;1.77;;;20.30;99.90;;;;;;5027740;28;20232;-69
2023/09/17 01:07:38;;;;;;;2.70;2.30;;;20.20;99.90;;;;;;5028574;28;20242;-66
2023/09/17 01:10:08;;;;;;;1.92;1.83;;;20.10;99.90;;;;;;5026898;28;20208;-65
2023/09/17 01:12:38;;;;;;;1.95;1.85;;;20.20;99.90;;;;;;5031654;28;20197;-65
2023/09/17 01:15:08;;;;;;;2.42;2.22;;;20.10;99.90;;;;;;5030475;28;20204;-65
2023/09/17 01:17:36;;;;;;;2.40;2.20;;;19.90;99.90;;;;;;5031632;28;20201;-64
2023/09/17 01:20:25;;;;;;;2.63;2.42;;;19.90;99.90;;;;;;5025029;28;20928;-65
2023/09/17 01:22:59;;;;;;;2.30;2.20;;;19.90;99.90;;;;;;5023356;28;20201;-65
2023/09/17 01:25:42;;;;;;;2.38;2.22;;;20.10;99.90;;;;;;5024282;28;20304;-65
2023/09/17 01:28:13;;;;;;;2.50;2.30;;;20.20;99.90;;;;;;5023214;28;20764;-65
2023/09/17 01:30:41;;;;;;;2.90;2.70;;;20.20;99.90;;;;;;5027084;28;20204;-66
2023/09/17 01:33:12;;;;;;;2.53;2.33;;;20.30;99.90;;;;;;5022900;28;20666;-66
2023/09/17 01:35:47;;;;;;;2.30;2.10;;;20.40;99.90;;;;;;5028368;28;20335;-65
2023/09/17 01:38:19;;;;;;;3.47;2.47;;;20.40;99.90;;;;;;5025520;28;20238;-65
2023/09/17 01:40:49;;;;;;;1.88;1.77;;;20.50;99.90;;;;;;5028985;28;20255;-64
2023/09/17 01:43:20;;;;;;;2.60;2.15;;;20.50;99.90;;;;;;5027333;28;20250;-64
2023/09/17 01:45:48;;;;;;;2.05;1.95;;;20.50;99.90;;;;;;5026137;28;20205;-65
2023/09/17 01:48:17;;;;;;;2.15;2.00;;;20.60;99.90;;;;;;5023629;28;20220;-66
2023/09/17 01:50:47;;;;;;;2.10;1.90;;;20.60;99.90;;;;;;5024971;28;20213;-65
2023/09/17 01:53:15;;;;;;;2.55;2.35;;;20.70;99.90;;;;;;5029082;28;20211;-65
2023/09/17 01:55:43;;;;;;;2.72;2.17;;;20.70;99.90;;;;;;5021399;28;20239;-65
2023/09/17 01:58:11;;;;;;;2.50;2.00;;;20.80;99.90;;;;;;5026770;28;20724;-66
2023/09/17 02:00:40;;;;;;;2.25;2.05;;;20.80;99.90;;;;;;5021044;28;20219;-66
2023/09/17 02:03:08;;;;;;;2.05;1.90;;;21.00;99.90;;;;;;5026278;28;20222;-66
2023/09/17 02:05:36;;;;;;;2.35;2.15;;;21.00;99.90;;;;;;5026692;28;20209;-66
2023/09/17 02:08:05;;;;;;;1.92;1.45;;;21.00;99.90;;;;;;5025994;28;20244;-66
2023/09/17 02:10:33;;;;;;;2.38;2.17;;;21.20;99.90;;;;;;5019478;28;20205;-67
2023/09/17 02:13:00;;;;;;;2.45;2.10;;;21.20;99.90;;;;;;5028492;28;20209;-65
2023/09/17 02:15:28;;;;;;;1.73;1.63;;;21.20;99.90;;;;;;5025862;28;20205;-65
2023/09/17 02:17:58;;;;;;;2.40;2.20;;;21.30;99.90;;;;;;5021873;28;20605;-65
2023/09/17 02:20:26;;;;;;;1.85;1.75;;;21.20;99.90;;;;;;5028289;28;20239;-67
2023/09/17 02:22:54;;;;;;;2.22;2.00;;;21.30;99.90;;;;;;5020995;28;21372;-66
2023/09/17 02:25:22;;;;;;;2.03;1.92;;;21.20;99.90;;;;;;5027323;28;20204;-65
2023/09/17 02:27:50;;;;;;;2.15;1.85;;;21.20;99.90;;;;;;5023599;28;20240;-65
2023/09/17 02:30:18;;;;;;;2.10;2.00;;;21.30;99.90;;;;;;5027055;28;20205;-65
2023/09/17 02:32:46;;;;;;;3.03;1.80;;;21.30;99.90;;;;;;5021504;28;20266;-66
2023/09/17 02:35:15;;;;;;;2.47;2.03;;;21.20;99.90;;;;;;5027691;28;20205;-66
2023/09/17 02:37:44;;;;;;;6.30;2.15;;;21.20;99.90;;;;;;5028242;28;20232;-67
2023/09/17 02:40:12;;;;;;;3.05;2.03;;;21.10;99.90;;;;;;5025244;28;20204;-66
2023/09/17 02:42:48;;;;;;;2.67;2.47;;;21.20;99.90;;;;;;5028449;28;20224;-66
2023/09/17 02:45:19;;;;;;;1.63;1.52;;;21.20;99.90;;;;;;5026291;28;20283;-66
2023/09/17 02:47:46;;;;;;;2.22;2.03;;;21.30;99.90;;;;;;5027065;28;20239;-66
2023/09/17 02:50:16;;;;;;;1.85;1.75;;;21.20;99.90;;;;;;5027355;28;20298;-65
2023/09/17 02:52:44;;;;;;;1.92;1.83;;;21.30;99.90;;;;;;5025573;28;20204;-66
2023/09/17 02:55:12;;;;;;;2.92;2.25;;;21.20;99.90;;;;;;5029681;28;20213;-66
2023/09/17 02:57:40;;;;;;;2.67;2.47;;;21.20;99.90;;;;;;5026407;28;20743;-65
2023/09/17 03:00:10;;;;;;;1.83;1.73;;;21.20;99.90;;;;;;5023263;28;20197;-65
2023/09/17 03:02:40;;;;;;;2.10;2.00;;;21.20;99.90;;;;;;5025851;28;20663;-66
2023/09/17 03:05:10;;;;;;;2.60;2.40;;;21.10;99.90;;;;;;5029213;28;20200;-66
2023/09/17 03:07:40;;;;;;;2.42;2.10;;;21.20;99.90;;;;;;5021454;28;20228;-68
2023/09/17 03:10:11;;;;;;;2.58;1.50;;;21.20;99.90;;;;;;5026900;28;20266;-66
2023/09/17 03:12:39;;;;;;;2.30;2.10;;;21.10;99.90;;;;;;5029270;28;20204;-66
2023/09/17 03:15:08;;;;;;;2.50;2.30;;;21.10;99.90;;;;;;5026399;28;20200;-66
2023/09/17 03:17:37;;;;;;;2.30;1.92;;;21.10;99.90;;;;;;5025964;28;20212;-65
2023/09/17 03:20:13;;;;;;;1.80;1.70;;;21.10;99.90;;;;;;5028097;28;20209;-67
2023/09/17 03:22:43;;;;;;;2.40;2.17;;;21.00;99.90;;;;;;5026231;28;20666;-66
2023/09/17 03:25:12;;;;;;;2.20;2.00;;;21.10;99.90;;;;;;5030038;28;20610;-66
2023/09/17 03:27:43;;;;;;;2.10;2.00;;;21.10;99.90;;;;;;5024157;28;20313;-66
2023/09/17 03:30:12;;;;;;;2.13;1.90;;;21.10;99.90;;;;;;5028171;28;20299;-66
2023/09/17 03:32:40;;;;;;;2.03;1.92;;;21.10;99.90;;;;;;5034392;28;20251;-67
2023/09/17 03:35:28;;;;;;;1.60;1.50;;;21.00;99.90;;;;;;5025374;28;20288;-65
2023/09/17 03:37:58;;;;;;;1.80;1.70;;;20.90;99.90;;;;;;5030571;28;20265;-65
2023/09/17 03:40:25;;;;;;;2.20;2.00;;;21.00;99.90;;;;;;5025866;28;20208;-66
2023/09/17 03:42:53;;;;;;;2.25;2.08;;;21.10;99.90;;;;;;5032042;28;20627;-66
2023/09/17 03:45:21;;;;;;;2.05;1.85;;;21.00;99.90;;;;;;5033299;28;20220;-66
2023/09/17 03:47:50;;;;;;;1.95;1.83;;;21.00;99.90;;;;;;5030472;28;20240;-66
2023/09/17 03:50:18;;;;;;;1.52;1.42;;;21.00;99.90;;;;;;5027622;28;20687;-66
2023/09/17 03:52:53;;;;;;;1.85;1.75;;;21.00;99.90;;;;;;5031557;28;20219;-65
2023/09/17 03:55:23;;;;;;;2.25;2.10;;;21.00;99.90;;;;;;5030543;28;20209;-66
2023/09/17 03:57:52;;;;;;;2.50;2.15;;;21.00;99.90;;;;;;5032851;28;20231;-65
2023/09/17 04:00:21;;;;;;;2.30;2.10;;;21.10;99.90;;;;;;5023886;28;20200;-66
2023/09/17 04:02:52;;;;;;;1.92;1.77;;;21.00;99.90;;;;;;5024541;28;20208;-66
2023/09/17 04:05:21;;;;;;;2.38;1.85;;;20.90;99.90;;;;;;5028075;28;20307;-65
2023/09/17 04:07:49;;;;;;;2.83;2.00;;;20.90;99.90;;;;;;5029092;28;20326;-64
2023/09/17 04:10:19;;;;;;;1.88;1.77;;;20.90;99.90;;;;;;5029860;28;20217;-65
2023/09/17 04:12:48;;;;;;;2.58;2.38;;;21.00;99.90;;;;;;5029914;28;20267;-65
2023/09/17 04:15:20;;;;;;;2.25;2.05;;;21.00;99.90;;;;;;5029637;28;20212;-65
2023/09/17 04:17:49;;;;;;;1.75;1.65;;;21.00;99.90;;;;;;5030054;28;20706;-65
2023/09/17 04:20:18;;;;;;;2.47;1.80;;;21.10;99.90;;;;;;5024305;28;20225;-65
2023/09/17 04:22:48;;;;;;;1.77;1.65;;;21.10;99.90;;;;;;5029500;28;20205;-65
2023/09/17 04:25:18;;;;;;;1.65;1.50;;;21.10;99.90;;;;;;5030653;28;20200;-65
2023/09/17 04:27:48;;;;;;;2.08;1.90;;;21.10;99.90;;;;;;5028206;28;20240;-64
2023/09/17 04:30:17;;;;;;;2.47;1.80;;;21.10;99.90;;;;;;5024181;28;20591;-65
2023/09/17 04:32:47;;;;;;;2.72;2.50;;;21.10;99.90;;;;;;5026963;28;20209;-66
2023/09/17 04:35:17;;;;;;;2.38;2.13;;;21.10;99.90;;;;;;5029731;28;20319;-66
2023/09/17 04:37:48;;;;;;;2.30;2.10;;;21.20;99.90;;;;;;5029766;28;20248;-66
2023/09/17 04:40:17;;;;;;;1.98;1.88;;;21.20;99.90;;;;;;5024105;28;20197;-66
2023/09/17 04:42:48;;;;;;;2.42;2.22;;;21.10;99.90;;;;;;5029568;28;20201;-66
2023/09/17 04:45:32;;;;;;;3.30;2.53;;;21.00;99.90;;;;;;5029915;28;20659;-66
2023/09/17 04:48:00;;;;;;;3.58;2.38;;;21.10;99.90;;;;;;5030599;28;20228;-67
2023/09/17 04:50:29;;;;;;;2.28;2.08;;;21.00;99.90;;;;;;5024626;28;20223;-66
2023/09/17 04:52:57;;;;;;;3.00;2.45;;;21.00;99.90;;;;;;5023576;28;20215;-67
2023/09/17 04:55:25;;;;;;;1.92;1.83;;;21.10;99.90;;;;;;5027287;28;20227;-66
2023/09/17 04:57:55;;;;;;;2.20;2.03;;;21.10;99.90;;;;;;5025251;28;20715;-66
2023/09/17 05:00:22;;;;;;;2.22;2.08;;;21.00;99.90;;;;;;5025916;28;20208;-66
2023/09/17 05:02:50;;;;;;;2.20;2.00;;;21.00;99.90;;;;;;5023123;28;20220;-66
2023/09/17 05:05:19;;;;;;;2.13;2.03;;;21.00;99.90;;;;;;5029047;28;20592;-67
2023/09/17 05:07:52;;;;;;;4.15;1.95;;;21.00;99.90;;;;;;5030566;28;20298;-66
2023/09/17 05:10:20;;;;;;;2.47;2.28;;;21.00;99.90;;;;;;5023520;28;20664;-66
2023/09/17 05:12:48;;;;;;;2.45;2.25;;;21.10;99.90;;;;;;5023685;28;20590;-66
2023/09/17 05:15:17;;;;;;;3.58;2.60;;;21.00;99.90;;;;;;5028870;28;20204;-67
2023/09/17 05:17:45;;;;;;;3.30;2.88;;;20.70;99.90;;;;;;5031533;28;20260;-66
2023/09/17 05:20:13;;;;;;;2.20;2.00;;;20.40;99.90;;;;;;5039998;28;20838;-67
2023/09/17 05:22:41;;;;;;;2.92;2.55;;;20.50;99.90;;;;;;5030830;28;20236;-64
2023/09/17 05:25:10;;;;;;;2.65;2.25;;;20.50;99.90;;;;;;5035540;28;20655;-66
2023/09/17 05:27:38;;;;;;;2.63;2.42;;;20.50;99.90;;;;;;5032488;28;20392;-66
2023/09/17 05:30:07;;;;;;;2.80;2.60;;;20.50;99.90;;;;;;5028136;28;20441;-66
2023/09/17 05:32:37;;;;;;;2.38;2.17;;;20.20;99.90;;;;;;5029430;28;20203;-66
2023/09/17 05:35:07;;;;;;;2.67;2.47;;;20.20;99.90;;;;;;5027201;28;20765;-66
2023/09/17 05:37:35;;;;;;;2.60;2.40;;;20.20;99.90;;;;;;5022139;28;20201;-66
2023/09/17 05:40:04;;;;;;;3.15;2.47;;;20.30;99.90;;;;;;5024343;28;20231;-66
2023/09/17 05:42:33;;;;;;;3.03;2.72;;;20.10;99.90;;;;;;5031473;28;20662;-65
2023/09/17 05:45:01;;;;;;;3.03;2.83;;;20.00;99.90;;;;;;5032441;28;20650;-66
2023/09/17 05:47:29;;;;;;;2.47;2.28;;;19.90;99.90;;;;;;5037849;28;20287;-66
2023/09/17 05:49:59;;;;;;;3.60;2.97;;;19.90;99.90;;;;;;5022963;28;20216;-66
2023/09/17 05:52:27;;;;;;;2.72;2.50;;;20.00;99.90;;;;;;5028484;28;20208;-66
2023/09/17 05:54:55;;;;;;;3.00;2.70;;;20.20;99.90;;;;;;5023152;28;20592;-66
2023/09/17 05:57:23;;;;;;;4.80;2.90;;;20.40;99.90;;;;;;5037354;28;20200;-66
2023/09/17 05:59:51;;;;;;;2.78;2.55;;;20.50;99.90;;;;;;5029649;28;20722;-66
2023/09/17 06:02:19;;;;;;;3.30;2.05;;;20.50;99.90;;;;;;5029788;28;20215;-66
2023/09/17 06:04:52;;;;;;;3.88;2.58;;;20.50;99.90;;;;;;5026824;28;20212;-66
2023/09/17 06:07:22;;;;;;;2.70;2.50;;;20.50;99.90;;;;;;5020855;28;20592;-65
2023/09/17 06:09:50;;;;;;;4.22;2.20;;;20.50;99.90;;;;;;5016560;28;20217;-66
2023/09/17 06:12:18;;;;;;;3.30;3.00;;;20.50;99.90;;;;;;5019842;28;20212;-65
2023/09/17 06:14:45;;;;;;;2.50;2.28;;;20.40;99.90;;;;;;5018807;28;20216;-65
2023/09/17 06:17:13;;;;;;;2.95;2.20;;;20.50;99.90;;;;;;5020283;28;20987;-65
2023/09/17 06:19:42;;;;;;;2.63;2.42;;;20.70;99.90;;;;;;5020175;28;20274;-65
2023/09/17 06:22:11;;;;;;;2.38;2.25;;;20.70;99.90;;;;;;5019395;28;20282;-66
2023/09/17 06:24:40;;;;;;;3.13;2.85;;;20.70;99.90;;;;;;5019355;28;20204;-66
2023/09/17 06:27:08;;;;;;;2.83;2.55;;;20.80;99.90;;;;;;5017398;28;20230;-65
2023/09/17 06:29:37;;;;;;;4.38;2.95;;;20.80;99.90;;;;;;5018553;28;20232;-65
2023/09/17 06:32:05;;;;;;;4.03;2.60;;;20.90;99.90;;;;;;5018403;28;21152;-65
2023/09/17 06:34:35;;;;;;;5.63;2.50;;;20.90;99.90;;;;;;5018446;28;20220;-65
2023/09/17 06:37:04;;;;;;;3.00;2.80;;;20.90;99.90;;;;;;5016083;28;20323;-65
2023/09/17 06:39:32;;;;;;;2.45;2.25;;;20.80;99.90;;;;;;5017867;28;20232;-65
2023/09/17 06:42:02;;;;;;;3.67;2.83;;;20.80;99.90;;;;;;5018443;28;20623;-65
2023/09/17 06:44:29;;;;;;;2.92;2.72;;;20.80;99.90;;;;;;5018407;28;20270;-66
2023/09/17 06:46:57;;;;;;;4.05;2.85;;;20.90;99.90;;;;;;5017074;28;20476;-65
2023/09/17 06:49:25;;;;;;;2.80;2.60;;;21.00;99.90;;;;;;5018801;28;21784;-65
2023/09/17 06:51:54;;;;;;;2.78;2.58;;;21.00;99.90;;;;;;5019127;28;20233;-65
2023/09/17 06:54:22;;;;;;;2.85;2.60;;;21.10;99.90;;;;;;5018963;28;20208;-65
2023/09/17 06:56:51;;;;;;;4.85;3.67;;;21.10;99.90;;;;;;5017533;28;20219;-66
2023/09/17 06:59:21;;;;;;;3.08;2.47;;;21.00;99.90;;;;;;5018941;28;20228;-66
2023/09/17 07:01:49;;;;;;;4.55;3.45;;;21.10;99.90;;;;;;5019665;28;20223;-66
2023/09/17 07:04:17;;;;;;;6.10;5.40;;;21.10;99.90;;;;;;5019114;28;20240;-65
2023/09/17 07:06:45;;;;;;;5.70;4.93;;;21.20;99.90;;;;;;5017768;28;20293;-65
2023/09/17 07:09:13;;;;;;;5.22;4.80;;;21.20;99.90;;;;;;5018257;28;20676;-66
2023/09/17 07:11:41;;;;;;;5.25;4.75;;;21.30;99.90;;;;;;5019160;28;20235;-66
2023/09/17 07:14:10;;;;;;;6.10;5.50;;;21.30;99.90;;;;;;5018230;28;20220;-65
2023/09/17 07:16:39;;;;;;;5.68;4.97;;;21.30;99.90;;;;;;5017340;28;20217;-65
2023/09/17 07:19:08;;;;;;;8.05;5.80;;;21.30;99.90;;;;;;5018429;28;20244;-65
2023/09/17 07:21:36;;;;;;;7.03;6.32;;;21.40;99.90;;;;;;5016144;28;20201;-66
2023/09/17 07:24:04;;;;;;;9.27;5.70;;;21.50;99.90;;;;;;5017158;28;20205;-65
2023/09/17 07:26:32;;;;;;;5.05;4.55;;;21.40;99.90;;;;;;5016022;28;20208;-65
2023/09/17 07:29:00;;;;;;;8.27;5.95;;;21.50;99.90;;;;;;5016277;28;20240;-65
2023/09/17 07:31:28;;;;;;;7.65;5.95;;;21.70;99.90;;;;;;5018509;28;20699;-66
2023/09/17 07:33:58;;;;;;;6.40;5.65;;;21.70;99.90;;;;;;5016283;28;20315;-66
2023/09/17 07:36:26;;;;;;;7.53;6.05;;;21.70;99.90;;;;;;5015217;28;20208;-65
2023/09/17 07:38:54;;;;;;;6.85;6.15;;;21.80;99.90;;;;;;5016283;28;20610;-66
2023/09/17 07:41:21;;;;;;;6.57;5.28;;;21.90;99.90;;;;;;5017467;28;20205;-65
2023/09/17 07:43:49;;;;;;;4.97;4.53;;;22.10;99.90;;;;;;5016575;28;20220;-65
2023/09/17 07:46:18;;;;;;;5.53;4.97;;;22.20;99.90;;;;;;5014959;28;20217;-65
2023/09/17 07:48:47;;;;;;;6.43;5.10;;;22.40;99.90;;;;;;5017151;28;20252;-65
2023/09/17 07:51:17;;;;;;;8.07;6.43;;;22.50;99.90;;;;;;5017085;28;20231;-65
2023/09/17 07:53:45;;;;;;;6.13;5.53;;;22.60;99.90;;;;;;5015857;28;20216;-65
2023/09/17 07:56:12;;;;;;;5.97;5.32;;;22.70;99.90;;;;;;5015475;28;20224;-66
2023/09/17 07:58:45;;;;;;;7.22;6.32;;;22.80;99.90;;;;;;5016711;28;20731;-65
2023/09/17 08:01:14;;;;;;;6.43;5.10;;;22.70;99.90;;;;;;5016482;28;20280;-66
2023/09/17 08:03:42;;;;;;;8.93;6.72;;;22.80;99.90;;;;;;5015576;28;20266;-66
2023/09/17 08:06:12;;;;;;;7.13;5.85;;;22.90;99.90;;;;;;5013447;28;20220;-66
2023/09/17 08:08:45;;;;;;;6.97;5.10;;;23.00;99.90;;;;;;5019763;28;20244;-66
2023/09/17 08:11:15;;;;;;;5.97;5.38;;;23.00;99.90;;;;;;5021367;28;20307;-65
2023/09/17 08:13:43;;;;;;;7.97;6.20;;;23.20;99.90;;;;;;5019331;28;20240;-65
2023/09/17 08:16:11;;;;;;;5.65;5.15;;;23.30;99.90;;;;;;5019096;28;20309;-66
2023/09/17 08:18:39;;;;;;;6.70;5.55;;;23.50;99.90;;;;;;5019167;28;20228;-66
2023/09/17 08:21:07;;;;;;;6.30;5.80;;;23.50;99.90;;;;;;5019046;28;20683;-66
2023/09/17 08:23:35;;;;;;;6.35;5.75;;;23.60;99.90;;;;;;5019590;28;21034;-65
2023/09/17 08:26:05;;;;;;;13.07;9.05;;;23.60;99.90;;;;;;5016309;28;20267;-65
2023/09/17 08:28:34;;;;;;;9.98;7.60;;;23.80;99.90;;;;;;5018883;28;20322;-65
2023/09/17 08:31:02;;;;;;;31.38;20.50;;;23.80;99.90;;;;;;5018752;28;20682;-65
2023/09/17 08:33:31;;;;;;;8.95;8.05;;;23.80;99.90;;;;;;5018491;28;20236;-65
2023/09/17 08:35:59;;;;;;;11.10;7.50;;;24.10;99.90;;;;;;5017227;28;20737;-67
2023/09/17 08:38:26;;;;;;;6.18;5.57;;;24.30;99.90;;;;;;5020458;28;20228;-66
2023/09/17 08:40:55;;;;;;;7.20;6.07;;;24.40;99.90;;;;;;5021597;28;20691;-64
2023/09/17 08:43:25;;;;;;;4.97;4.55;;;24.60;99.90;;;;;;5021525;28;20209;-69
2023/09/17 08:45:54;;;;;;;7.30;6.00;;;24.60;99.90;;;;;;5020061;28;20207;-65
2023/09/17 08:48:22;;;;;;;4.47;4.05;;;24.80;99.90;;;;;;5022117;28;20228;-65
2023/09/17 08:50:53;;;;;;;5.32;4.82;;;25.00;99.90;;;;;;5021050;28;20207;-66
2023/09/17 08:53:26;;;;;;;3.92;3.53;;;25.00;99.90;;;;;;5017473;28;20243;-65
2023/09/17 08:55:57;;;;;;;4.22;3.70;;;25.30;99.90;;;;;;5017739;28;20212;-66
2023/09/17 08:58:30;;;;;;;4.57;3.97;;;25.50;99.90;;;;;;5019443;28;20228;-65
2023/09/17 09:01:03;;;;;;;5.07;3.90;;;25.70;99.90;;;;;;5016490;28;20213;-66
2023/09/17 09:03:34;;;;;;;4.32;3.92;;;25.90;99.90;;;;;;5019393;28;20205;-66
2023/09/17 09:06:03;;;;;;;5.40;3.95;;;26.20;99.90;;;;;;5016617;28;20228;-65
2023/09/17 09:08:32;;;;;;;3.83;3.45;;;26.50;99.90;;;;;;5019064;28;20759;-65
2023/09/17 09:11:00;;;;;;;4.13;3.45;;;26.70;99.90;;;;;;5017809;28;20629;-66
2023/09/17 09:13:31;;;;;;;5.03;4.53;;;27.00;99.90;;;;;;5019453;28;20674;-67
2023/09/17 09:16:00;;;;;;;3.53;3.20;;;27.10;99.90;;;;;;5016070;28;20221;-66
2023/09/17 09:18:28;;;;;;;3.40;2.70;;;27.10;99.90;;;;;;5016461;28;20228;-65
2023/09/17 09:20:57;;;;;;;3.60;3.15;;;27.40;99.90;;;;;;5017897;28;20213;-66
2023/09/17 09:23:25;;;;;;;2.10;1.90;;;27.60;99.90;;;;;;5017016;28;20635;-65
2023/09/17 09:25:53;;;;;;;3.08;2.15;;;27.70;99.90;;;;;;5016132;28;20259;-66
2023/09/17 09:28:21;;;;;;;2.15;2.00;;;27.90;99.90;;;;;;5017626;28;20593;-66
2023/09/17 09:30:51;;;;;;;2.20;1.70;;;27.80;99.90;;;;;;5019413;28;20216;-65
2023/09/17 09:33:21;;;;;;;2.10;2.00;;;28.00;99.90;;;;;;5016588;28;20224;-65
2023/09/17 09:35:50;;;;;;;2.65;2.17;;;27.90;99.90;;;;;;5017540;28;20215;-66
2023/09/17 09:38:18;;;;;;;2.00;1.52;;;27.90;99.90;;;;;;5017998;28;20792;-66
2023/09/17 09:40:46;;;;;;;2.38;2.17;;;27.80;99.90;;;;;;5020689;28;20212;-65
2023/09/17 09:43:28;;;;;;;2.20;2.10;;;27.90;99.90;;;;;;5019036;28;20220;-67
2023/09/17 09:46:02;;;;;;;2.10;1.90;;;28.00;99.90;;;;;;5015668;28;20220;-66
2023/09/17 09:48:30;;;;;;;4.60;2.10;;;27.90;99.90;;;;;;5016120;28;20232;-65
2023/09/17 09:50:59;;;;;;;1.80;1.70;;;27.90;99.90;;;;;;5017704;28;20682;-65
2023/09/17 09:53:26;;;;;;;2.33;2.15;;;28.00;99.90;;;;;;5018874;28;20307;-67
2023/09/17 09:55:56;;;;;;;3.33;1.70;;;28.10;99.90;;;;;;5015027;28;20684;-67
2023/09/17 09:58:25;;;;;;;2.00;1.83;;;28.20;99.90;;;;;;5016538;28;20227;-65
2023/09/17 10:00:54;;;;;;;3.15;2.33;;;28.40;99.90;;;;;;5016527;28;20205;-65
2023/09/17 10:03:25;;;;;;;3.08;1.90;;;28.30;99.90;;;;;;5016903;28;20215;-65
2023/09/17 10:05:53;;;;;;;1.85;1.75;;;28.60;99.90;;;;;;5015560;28;20216;-67
2023/09/17 10:08:22;;;;;;;2.60;2.40;;;28.70;99.90;;;;;;5018596;28;20236;-65
2023/09/17 10:10:50;;;;;;;1.90;1.80;;;28.90;99.90;;;;;;5016893;28;20216;-66
2023/09/17 10:13:18;;;;;;;2.35;2.15;;;29.10;99.90;;;;;;5015955;28;20228;-66
2023/09/17 10:15:47;;;;;;;2.03;1.92;;;29.10;99.90;;;;;;5016277;28;20243;-66
2023/09/17 10:18:16;;;;;;;2.53;2.38;;;29.20;99.90;;;;;;5016268;28;20315;-65
2023/09/17 10:20:48;;;;;;;2.78;2.53;;;29.50;99.90;;;;;;5016982;28;20220;-66
2023/09/17 10:23:17;;;;;;;2.75;2.55;;;29.50;99.90;;;;;;5015072;28;20217;-66
2023/09/17 10:25:48;;;;;;;2.95;1.55;;;29.50;99.90;;;;;;5014911;28;20583;-67
2023/09/17 10:28:17;;;;;;;2.33;1.90;;;29.60;99.90;;;;;;5017733;28;20231;-67
2023/09/17 10:30:45;;;;;;;2.15;2.00;;;29.70;99.90;;;;;;5016406;28;20690;-66
2023/09/17 10:33:15;;;;;;;3.92;1.75;;;29.70;99.90;;;;;;5015422;28;20244;-67
2023/09/17 10:35:46;;;;;;;5.68;2.05;;;30.10;99.90;;;;;;5014539;28;20212;-66
2023/09/17 10:38:17;;;;;;;2.05;1.85;;;30.20;99.90;;;;;;5017471;28;20797;-66
2023/09/17 10:40:45;;;;;;;2.88;2.67;;;30.40;99.90;;;;;;5016204;28;20706;-66
2023/09/17 10:43:15;;;;;;;2.47;2.25;;;30.60;99.90;;;;;;5017218;28;20205;-66
2023/09/17 10:45:44;;;;;;;2.05;1.95;;;30.80;99.90;;;;;;5015898;28;20209;-66
2023/09/17 10:48:13;;;;;;;2.17;1.80;;;31.10;99.90;;;;;;5016476;28;20235;-68
2023/09/17 10:50:42;;;;;;;2.72;1.80;;;31.00;99.90;;;;;;5015270;28;20244;-66
2023/09/17 10:53:12;;;;;;;2.28;2.08;;;31.00;99.90;;;;;;5018771;28;20231;-66
2023/09/17 10:55:46;;;;;;;1.77;1.67;;;30.80;99.90;;;;;;5015615;28;20220;-66
2023/09/17 10:58:20;;;;;;;1.80;1.70;;;30.90;99.90;;;;;;5017260;28;20372;-67
2023/09/17 11:00:49;;;;;;;2.88;1.67;;;30.80;99.90;;;;;;5016415;28;20216;-67
2023/09/17 11:03:20;;;;;;;2.17;1.98;;;30.80;99.90;;;;;;5015185;28;20208;-67
2023/09/17 11:05:50;;;;;;;2.35;2.15;;;30.80;99.90;;;;;;5014674;28;20220;-66
2023/09/17 11:08:21;;;;;;;2.05;1.92;;;30.70;99.90;;;;;;5017110;28;20318;-67
2023/09/17 11:10:49;;;;;;;2.25;2.05;;;30.90;99.90;;;;;;5016896;28;20247;-65
2023/09/17 11:13:17;;;;;;;2.30;2.10;;;31.10;99.90;;;;;;5014946;28;20299;-65
2023/09/17 11:15:45;;;;;;;3.80;3.45;;;31.30;99.90;;;;;;5014175;28;20216;-68
2023/09/17 11:18:13;;;;;;;2.40;2.20;;;31.40;99.90;;;;;;5017164;28;20659;-65
2023/09/17 11:21:07;;;;;;;4.15;2.05;;;31.30;99.90;;;;;;5016865;28;20816;-65
2023/09/17 11:23:44;;;;;;;2.57;1.83;;;31.10;99.90;;;;;;5013929;28;20727;-66
2023/09/17 11:26:15;;;;;;;2.13;1.92;;;31.10;99.90;;;;;;5014900;28;20649;-67
2023/09/17 11:28:43;;;;;;;1.95;1.85;;;31.10;99.90;;;;;;5015615;28;20227;-66
2023/09/17 11:31:13;;;;;;;2.42;1.70;;;30.90;99.90;;;;;;5017322;28;20243;-65
2023/09/17 11:33:43;;;;;;;2.45;2.25;;;31.00;99.90;;;;;;5015662;28;20251;-66
2023/09/17 11:36:10;;;;;;;2.65;1.85;;;31.10;99.90;;;;;;5015544;28;20219;-66
2023/09/17 11:38:47;;;;;;;2.38;1.77;;;31.00;99.90;;;;;;5015924;28;20270;-66
2023/09/17 11:41:17;;;;;;;3.15;1.88;;;31.10;99.90;;;;;;5016567;28;20587;-68
2023/09/17 11:43:48;;;;;;;3.08;1.90;;;31.00;99.90;;;;;;5021313;28;20223;-67
2023/09/17 11:46:17;;;;;;;2.10;2.00;;;30.70;99.90;;;;;;5019410;28;20267;-65
2023/09/17 11:48:45;;;;;;;1.60;1.50;;;30.50;99.90;;;;;;5019616;28;20731;-66
2023/09/17 11:51:21;;;;;;;2.08;1.92;;;30.70;99.90;;;;;;5019641;28;20212;-65
2023/09/17 11:53:54;;;;;;;2.17;1.63;;;30.90;99.90;;;;;;5021144;28;20227;-65
2023/09/17 11:56:22;;;;;;;1.60;1.50;;;30.90;99.90;;;;;;5018089;28;20205;-66
2023/09/17 11:59:00;;;;;;;2.45;1.65;;;31.00;99.90;;;;;;5018074;28;20753;-65
2023/09/17 12:01:31;;;;;;;2.15;1.80;;;30.70;99.90;;;;;;5017899;28;20219;-65
2023/09/17 12:04:00;;;;;;;1.52;1.42;;;30.70;99.90;;;;;;5018646;28;20673;-66
2023/09/17 12:06:28;;;;;;;1.88;1.75;;;30.30;99.90;;;;;;5017820;28;20216;-65
2023/09/17 12:09:05;;;;;;;2.67;1.98;;;30.00;99.90;;;;;;5018486;28;20240;-67
2023/09/17 12:11:35;;;;;;;2.10;2.00;;;30.00;99.90;;;;;;5018880;28;20615;-66
2023/09/17 12:14:06;;;;;;;2.05;1.95;;;29.90;99.90;;;;;;5018596;28;20722;-65
2023/09/17 12:16:35;;;;;;;1.63;1.52;;;29.80;99.90;;;;;;5018441;28;20216;-65
2023/09/17 12:19:04;;;;;;;2.25;2.05;;;29.70;99.90;;;;;;5020247;28;20286;-65
2023/09/17 12:21:47;;;;;;;1.88;1.67;;;29.80;99.90;;;;;;5018749;28;20299;-65
2023/09/17 12:24:28;;;;;;;3.88;3.20;;;29.80;99.90;;;;;;5020306;28;20233;-65
2023/09/17 12:29:47;;;;;;;2.05;1.95;;;30.30;99.90;;;;;;5018283;28;20220;-65
2023/09/17 12:32:19;;;;;;;2.40;1.77;;;30.10;99.90;;;;;;5020102;28;20208;-66
2023/09/17 12:34:49;;;;;;;1.85;1.70;;;29.90;99.90;;;;;;5017943;28;20239;-69
2023/09/17 12:37:18;;;;;;;3.22;2.03;;;30.00;99.90;;;;;;5018778;28;20573;-65
2023/09/17 12:39:49;;;;;;;2.05;1.85;;;30.30;99.90;;;;;;5020167;28;20697;-66
2023/09/17 12:42:17;;;;;;;1.95;1.80;;;30.50;99.90;;;;;;5017544;28;20205;-67
2023/09/17 12:44:45;;;;;;;2.75;2.03;;;30.40;99.90;;;;;;5018573;28;20208;-67
2023/09/17 12:47:14;;;;;;;2.65;1.40;;;30.50;99.90;;;;;;5017939;28;20205;-68
2023/09/17 12:49:42;;;;;;;3.10;2.17;;;30.50;99.90;;;;;;5017709;28;20236;-65
2023/09/17 12:52:12;;;;;;;1.90;1.80;;;30.10;99.90;;;;;;5019126;28;20208;-66
2023/09/17 12:54:40;;;;;;;1.33;1.23;;;30.00;99.90;;;;;;5019010;28;20868;-66
2023/09/17 12:57:09;;;;;;;1.65;1.55;;;30.10;99.90;;;;;;5016900;28;20675;-66
2023/09/17 12:59:38;;;;;;;2.40;2.20;;;30.20;99.90;;;;;;5019404;28;20224;-67